Time;durP1;ratioP1;P1;durP2;ratioP2;P2;SDS_P1;SDS_P2;PMS_P1;PMS_P2;Temp;Humidity;BMP_temperature;BMP_pressure;BME280_temperature;BME280_humidity;BME280_pressure;Samples;Min_cycle;Max_cycle;Signal;HPM_P1;HPM_P2
2022/06/28 00:00:34;;;;;;;20.88;12.60;;;23.00;99.90;;;;;;5012358;28;20053;-51
2022/06/28 00:03:00;;;;;;;19.15;13.98;;;23.00;99.90;;;;;;5012585;28;20022;-50
2022/06/28 00:05:26;;;;;;;21.75;15.75;;;23.00;99.90;;;;;;5012154;28;20045;-51
2022/06/28 00:07:51;;;;;;;22.65;14.85;;;23.00;99.90;;;;;;5015176;28;20078;-50
2022/06/28 00:10:17;;;;;;;25.40;15.90;;;23.00;99.90;;;;;;5022825;28;20029;-50
2022/06/28 00:12:43;;;;;;;22.65;16.42;;;22.90;99.90;;;;;;5021165;28;20052;-51
2022/06/28 00:17:57;;;;;;;19.23;15.47;;;23.00;99.90;;;;;;5016512;28;20113;-50
2022/06/28 00:20:23;;;;;;;21.60;14.95;;;22.90;99.90;;;;;;5023105;28;20029;-51
2022/06/28 00:22:49;;;;;;;24.98;15.05;;;22.90;99.90;;;;;;5021848;28;20465;-52
2022/06/28 00:25:15;;;;;;;24.75;13.15;;;22.90;99.90;;;;;;5021958;28;20058;-50
2022/06/28 00:27:41;;;;;;;17.88;11.93;;;22.80;99.90;;;;;;5020318;28;20381;-52
2022/06/28 00:30:08;;;;;;;18.55;11.10;;;22.70;99.90;;;;;;5023062;28;20200;-52
2022/06/28 00:32:34;;;;;;;22.23;11.07;;;22.70;99.90;;;;;;5031577;28;20018;-51
2022/06/28 00:35:01;;;;;;;19.48;11.30;;;22.60;99.90;;;;;;5031470;28;20037;-51
2022/06/28 00:37:27;;;;;;;22.40;14.63;;;22.60;99.90;;;;;;5031695;28;20029;-50
2022/06/28 00:39:54;;;;;;;20.52;14.25;;;22.50;99.90;;;;;;5031470;28;20029;-50
2022/06/28 00:42:20;;;;;;;24.17;13.82;;;22.50;99.90;;;;;;5031364;28;20032;-52
2022/06/28 00:44:46;;;;;;;20.80;13.43;;;22.20;99.90;;;;;;5031310;28;20033;-51
2022/06/28 00:47:13;;;;;;;18.38;11.65;;;22.20;99.90;;;;;;5031261;28;20103;-50
2022/06/28 00:49:40;;;;;;;27.15;12.10;;;22.20;99.90;;;;;;5031274;28;20067;-51
2022/06/28 00:52:07;;;;;;;29.60;13.55;;;22.20;99.90;;;;;;5031349;28;20065;-52
2022/06/28 00:54:33;;;;;;;;;;;22.10;99.90;;;;;;5031177;28;20088;-51
2022/06/28 00:56:59;;;;;;;24.33;12.20;;;22.00;99.90;;;;;;5031149;28;19913;-51
2022/06/28 00:59:25;;;;;;;23.45;11.02;;;22.00;99.90;;;;;;5030566;28;20028;-50
2022/06/28 01:01:50;;;;;;;20.08;11.57;;;21.90;99.90;;;;;;5031042;28;20029;-50
2022/06/28 01:04:16;;;;;;;20.00;11.75;;;22.00;99.90;;;;;;5031048;28;20030;-50
2022/06/28 01:06:42;;;;;;;22.05;11.82;;;21.90;99.90;;;;;;5030915;28;20029;-50
2022/06/28 01:09:08;;;;;;;24.27;12.18;;;21.80;99.90;;;;;;5030269;28;20458;-50
2022/06/28 01:11:34;;;;;;;17.85;12.23;;;21.80;99.90;;;;;;5030575;28;20029;-51
2022/06/28 01:14:02;;;;;;;21.23;11.77;;;21.90;99.90;;;;;;5030935;28;20037;-50
2022/06/28 01:16:28;;;;;;;23.20;11.50;;;22.00;99.90;;;;;;5030483;28;20037;-51
2022/06/28 01:18:55;;;;;;;17.67;10.82;;;22.00;99.90;;;;;;5030223;28;20021;-51
2022/06/28 01:21:26;;;;;;;25.10;12.45;;;21.90;99.90;;;;;;5013143;28;20493;-51
2022/06/28 01:23:52;;;;;;;26.52;11.85;;;21.80;99.90;;;;;;5031246;28;20083;-51
2022/06/28 01:26:21;;;;;;;22.98;11.85;;;21.80;99.90;;;;;;5030759;28;20037;-50
2022/06/28 01:28:52;;;;;;;22.27;11.52;;;21.80;99.90;;;;;;5030798;28;20465;-51
2022/06/28 01:31:21;;;;;;;21.48;12.07;;;21.70;99.90;;;;;;5030683;28;20541;-51
2022/06/28 01:33:48;;;;;;;24.08;12.52;;;21.60;99.90;;;;;;5030702;28;20033;-50
2022/06/28 01:36:14;;;;;;;27.08;12.60;;;21.50;99.90;;;;;;5030054;28;20487;-51
2022/06/28 01:38:40;;;;;;;25.00;11.85;;;21.40;99.90;;;;;;5030656;28;20034;-52
2022/06/28 01:41:07;;;;;;;30.75;12.18;;;21.40;99.90;;;;;;5030540;28;20019;-51
2022/06/28 01:43:34;;;;;;;22.92;12.18;;;21.40;99.90;;;;;;5030110;28;20029;-51
2022/06/28 01:46:03;;;;;;;23.08;12.90;;;21.30;99.90;;;;;;5030350;28;20534;-50
2022/06/28 01:48:31;;;;;;;20.52;12.55;;;21.30;99.90;;;;;;5030250;28;20025;-51
2022/06/28 01:50:57;;;;;;;21.83;12.07;;;21.40;99.90;;;;;;5030475;28;20030;-50
2022/06/28 01:53:23;;;;;;;22.35;12.45;;;21.50;99.90;;;;;;5030298;28;20060;-53
2022/06/28 01:55:49;;;;;;;25.98;12.75;;;21.50;99.90;;;;;;5030399;28;20063;-51
2022/06/28 01:58:15;;;;;;;21.27;12.45;;;21.40;99.90;;;;;;5030429;28;20259;-51
2022/06/28 02:00:41;;;;;;;24.27;12.40;;;21.30;99.90;;;;;;5012633;28;20025;-51
2022/06/28 02:03:07;;;;;;;22.23;11.95;;;21.20;99.90;;;;;;5030486;28;20552;-51
2022/06/28 02:05:33;;;;;;;27.65;12.13;;;21.10;99.90;;;;;;5030094;28;20498;-51
2022/06/28 02:07:59;;;;;;;17.27;10.70;;;21.30;99.90;;;;;;5034176;28;20056;-51
2022/06/28 02:10:25;;;;;;;32.50;14.00;;;21.40;99.90;;;;;;5034460;28;20113;-51
2022/06/28 02:12:51;;;;;;;20.15;12.40;;;21.30;99.90;;;;;;5034160;28;20095;-51
2022/06/28 02:15:17;;;;;;;19.65;12.23;;;21.10;99.90;;;;;;5034371;28;20488;-52
2022/06/28 02:17:44;;;;;;;19.45;12.73;;;21.10;99.90;;;;;;5034246;28;20025;-51
2022/06/28 02:20:10;;;;;;;24.87;12.20;;;20.90;99.90;;;;;;5034234;28;20026;-51
2022/06/28 02:22:36;;;;;;;24.70;13.00;;;20.90;99.90;;;;;;5034058;28;20018;-50
2022/06/28 02:25:03;;;;;;;30.38;13.73;;;21.10;99.90;;;;;;5033906;28;20060;-52
2022/06/28 02:27:29;;;;;;;25.77;12.75;;;21.00;99.90;;;;;;5034002;28;20025;-51
2022/06/28 02:29:54;;;;;;;22.63;12.98;;;21.10;99.90;;;;;;5033989;28;20037;-51
2022/06/28 02:32:20;;;;;;;24.58;12.32;;;21.20;99.90;;;;;;5033881;28;20441;-51
2022/06/28 02:40:24;;;;;;;26.88;13.38;;;21.20;99.90;;;;;;5033993;28;20032;-50
2022/06/28 02:42:58;;;;;;;24.08;11.75;;;21.10;99.90;;;;;;5033730;28;20370;-51
2022/06/28 02:45:32;;;;;;;21.13;12.07;;;21.20;99.90;;;;;;5033508;28;20040;-51
2022/06/28 02:47:58;;;;;;;23.73;12.75;;;21.20;99.90;;;;;;5015705;28;20476;-51
2022/06/28 02:50:24;;;;;;;21.67;11.82;;;21.20;99.90;;;;;;5033334;28;20040;-51
2022/06/28 02:52:50;;;;;;;24.67;13.40;;;21.10;99.90;;;;;;5012426;28;20045;-50
2022/06/28 02:55:17;;;;;;;20.45;11.07;;;21.30;99.90;;;;;;5013777;28;20912;-51
2022/06/28 02:57:44;;;;;;;26.10;13.27;;;21.20;99.90;;;;;;5013577;28;20535;-51
2022/06/28 03:00:13;;;;;;;21.42;12.02;;;21.10;99.90;;;;;;5013568;28;20549;-50
2022/06/28 03:02:41;;;;;;;24.52;11.90;;;21.20;99.90;;;;;;5013447;28;20026;-51
2022/06/28 03:05:09;;;;;;;18.55;11.57;;;21.20;99.90;;;;;;5013137;28;20033;-53
2022/06/28 03:07:36;;;;;;;18.23;11.48;;;21.20;99.90;;;;;;5013423;28;20049;-49
2022/06/28 03:10:03;;;;;;;21.25;11.57;;;21.30;99.90;;;;;;5013335;28;20108;-51
2022/06/28 03:12:28;;;;;;;;;;;21.20;99.90;;;;;;5013843;28;20485;-51
2022/06/28 03:14:54;;;;;;;21.67;12.10;;;21.10;99.90;;;;;;5013076;28;19906;-51
2022/06/28 03:17:20;;;;;;;26.30;11.32;;;21.10;99.90;;;;;;5012640;28;20076;-52
2022/06/28 03:19:46;;;;;;;18.70;11.45;;;21.20;99.90;;;;;;5013241;28;20026;-51
2022/06/28 03:22:11;;;;;;;20.60;12.18;;;21.10;99.90;;;;;;5012934;28;20030;-50
2022/06/28 03:24:37;;;;;;;20.80;12.18;;;21.10;99.90;;;;;;5013471;28;20041;-53
2022/06/28 03:27:03;;;;;;;25.05;12.77;;;21.10;99.90;;;;;;5013117;28;20385;-49
2022/06/28 03:29:29;;;;;;;23.90;11.95;;;21.00;99.90;;;;;;5013386;28;20034;-51
2022/06/28 03:31:55;;;;;;;24.60;12.90;;;21.00;99.90;;;;;;5013131;28;20544;-52
2022/06/28 03:34:20;;;;;;;16.60;11.80;;;21.00;99.90;;;;;;5013110;28;20060;-50
2022/06/28 03:36:47;;;;;;;30.63;13.48;;;21.10;99.90;;;;;;5012928;28;20417;-52
2022/06/28 03:39:13;;;;;;;23.30;12.40;;;21.30;99.90;;;;;;5012923;28;20109;-50
2022/06/28 03:41:39;;;;;;;27.75;11.05;;;21.40;99.90;;;;;;5012770;28;20025;-52
2022/06/28 03:44:04;;;;;;;21.35;12.32;;;21.50;99.90;;;;;;5012748;28;20038;-51
2022/06/28 03:46:30;;;;;;;20.90;11.60;;;21.60;99.90;;;;;;5012650;28;20088;-51
2022/06/28 03:48:56;;;;;;;19.60;12.18;;;21.60;99.90;;;;;;5012619;28;20497;-52
2022/06/28 03:51:22;;;;;;;18.00;11.60;;;21.60;99.90;;;;;;5012621;28;20040;-51
2022/06/28 03:53:47;;;;;;;17.30;12.30;;;21.60;99.90;;;;;;5029226;28;20099;-50
2022/06/28 03:56:13;;;;;;;16.40;11.75;;;21.60;99.90;;;;;;5032300;28;20026;-51
2022/06/28 03:58:40;;;;;;;21.30;12.68;;;21.70;99.90;;;;;;5032397;28;20092;-52
2022/06/28 04:01:06;;;;;;;26.33;12.40;;;21.80;99.90;;;;;;5032491;28;20117;-51
2022/06/28 04:03:32;;;;;;;22.48;12.40;;;21.80;99.90;;;;;;5032093;28;20105;-51
2022/06/28 04:05:58;;;;;;;39.15;14.13;;;21.90;99.90;;;;;;5031830;28;20083;-52
2022/06/28 04:08:23;;;;;;;19.67;11.98;;;21.80;99.90;;;;;;5032010;28;20025;-51
2022/06/28 04:11:13;;;;;;;18.02;11.98;;;22.00;99.90;;;;;;5031924;28;20135;-52
2022/06/28 04:13:35;;;;;;;29.30;12.82;;;22.00;99.90;;;;;;5031693;28;20029;-52
2022/06/28 04:16:00;;;;;;;18.10;12.75;;;22.10;99.90;;;;;;5031579;28;20025;-51
2022/06/28 04:18:26;;;;;;;29.38;12.15;;;22.20;99.90;;;;;;5032146;28;20029;-52
2022/06/28 04:20:52;;;;;;;20.83;12.25;;;22.30;99.90;;;;;;5031745;28;20552;-51
2022/06/28 04:23:17;;;;;;;28.50;12.05;;;22.40;99.90;;;;;;5032000;28;20044;-51
2022/06/28 04:25:43;;;;;;;118.90;18.35;;;22.50;99.90;;;;;;5031080;28;20489;-51
2022/06/28 04:28:09;;;;;;;30.80;12.27;;;22.50;99.90;;;;;;5003113;28;20068;-52
2022/06/28 04:30:34;;;;;;;25.02;11.65;;;22.60;99.90;;;;;;5020165;28;20033;-51
2022/06/28 04:33:00;;;;;;;26.20;12.32;;;22.60;99.90;;;;;;5022278;28;20024;-51
2022/06/28 04:35:25;;;;;;;18.88;11.73;;;22.80;99.90;;;;;;5022451;28;20469;-52
2022/06/28 04:37:51;;;;;;;20.83;11.57;;;22.80;99.90;;;;;;5019799;28;20037;-52
2022/06/28 04:40:17;;;;;;;23.65;12.93;;;22.90;99.90;;;;;;5018588;28;20056;-52
2022/06/28 04:42:43;;;;;;;34.60;13.20;;;23.00;99.90;;;;;;5019073;28;20056;-51
2022/06/28 04:45:09;;;;;;;34.42;12.88;;;23.00;99.90;;;;;;5026128;28;20095;-53
2022/06/28 04:47:34;;;;;;;36.28;11.65;;;23.10;99.90;;;;;;5031209;28;20033;-51
2022/06/28 04:50:00;;;;;;;25.40;11.88;;;23.20;99.90;;;;;;5031558;28;20029;-51
2022/06/28 04:52:26;;;;;;;20.13;9.38;;;23.30;99.90;;;;;;5023237;28;20907;-53
2022/06/28 04:54:51;;;;;;;27.27;11.48;;;23.30;99.90;;;;;;5021827;28;20424;-52
2022/06/28 04:57:17;;;;;;;20.58;10.65;;;23.40;99.90;;;;;;5019753;28;20417;-52
2022/06/28 04:59:43;;;;;;;23.70;12.02;;;23.50;99.90;;;;;;5024445;28;20630;-51
2022/06/28 05:02:10;;;;;;;16.60;10.38;;;23.60;99.90;;;;;;5011332;28;20037;-52
2022/06/28 05:04:35;;;;;;;17.27;10.40;;;23.60;99.90;;;;;;5019580;28;20029;-53
2022/06/28 05:07:01;;;;;;;17.77;9.63;;;23.60;99.90;;;;;;5019470;28;20041;-52
2022/06/28 05:09:27;;;;;;;14.88;9.65;;;23.70;99.90;;;;;;5021453;28;20028;-51
2022/06/28 05:11:52;;;;;;;16.88;8.65;;;23.80;99.90;;;;;;5020840;28;20488;-51
2022/06/28 05:14:18;;;;;;;18.50;9.27;;;23.80;99.90;;;;;;5019560;28;20030;-52
2022/06/28 05:16:45;;;;;;;20.85;10.60;;;23.90;99.90;;;;;;5021475;28;20473;-51
2022/06/28 05:19:11;;;;;;;17.85;10.15;;;24.00;99.90;;;;;;5020368;28;20065;-51
2022/06/28 05:21:37;;;;;;;21.17;9.80;;;24.00;99.90;;;;;;5019663;28;20155;-51
2022/06/28 05:24:03;;;;;;;20.77;12.10;;;24.10;99.90;;;;;;5017569;28;20029;-51
2022/06/28 05:26:29;;;;;;;22.17;11.37;;;24.00;99.90;;;;;;5018832;28;20484;-51
2022/06/28 05:28:55;;;;;;;18.55;9.98;;;23.90;99.90;;;;;;5016004;28;20143;-51
2022/06/28 05:31:21;;;;;;;19.20;10.40;;;23.90;99.90;;;;;;5020932;28;20369;-52
2022/06/28 05:33:46;;;;;;;15.70;9.07;;;23.90;99.90;;;;;;5020006;28;20427;-52
2022/06/28 05:36:12;;;;;;;18.17;9.23;;;23.80;99.90;;;;;;5019878;28;20044;-52
2022/06/28 05:38:38;;;;;;;14.32;8.73;;;23.90;99.90;;;;;;5021015;28;20101;-52
2022/06/28 05:41:03;;;;;;;16.63;8.68;;;24.00;99.90;;;;;;4995383;28;20469;-52
2022/06/28 05:43:29;;;;;;;16.35;8.90;;;24.10;99.90;;;;;;5010603;28;20033;-52
2022/06/28 05:45:55;;;;;;;14.43;9.50;;;24.20;99.90;;;;;;5010704;28;20054;-52
2022/06/28 05:48:20;;;;;;;11.38;7.82;;;24.30;99.90;;;;;;5010674;28;20104;-54
2022/06/28 05:50:49;;;;;;;13.68;8.98;;;24.40;99.90;;;;;;5010748;28;20037;-52
2022/06/28 05:53:15;;;;;;;18.30;8.98;;;24.40;99.90;;;;;;5010475;28;20100;-52
2022/06/28 05:55:40;;;;;;;16.70;8.10;;;24.50;99.90;;;;;;5010552;28;20034;-51
2022/06/28 05:58:06;;;;;;;11.55;8.38;;;24.60;99.90;;;;;;5010651;28;20025;-52
2022/06/28 06:00:33;;;;;;;14.77;7.80;;;24.70;99.90;;;;;;5010849;28;20563;-52
2022/06/28 06:03:00;;;;;;;14.82;7.80;;;24.70;99.90;;;;;;5010434;28;20022;-52
2022/06/28 06:05:26;;;;;;;17.10;9.30;;;24.80;99.90;;;;;;5010638;28;20072;-52
2022/06/28 06:07:51;;;;;;;13.70;8.98;;;24.80;99.90;;;;;;5010604;28;20022;-52
2022/06/28 06:10:17;;;;;;;15.07;8.82;;;24.90;99.90;;;;;;5010478;28;20041;-52
2022/06/28 06:12:43;;;;;;;18.80;9.98;;;24.90;99.90;;;;;;4992812;28;20105;-52
2022/06/28 06:15:09;;;;;;;23.85;10.43;;;24.80;99.90;;;;;;5010342;28;20018;-52
2022/06/28 06:17:35;;;;;;;19.48;11.07;;;25.00;99.90;;;;;;5010384;28;20105;-52
2022/06/28 06:20:02;;;;;;;20.23;11.18;;;25.00;99.90;;;;;;5010502;28;20425;-52
2022/06/28 06:22:28;;;;;;;14.60;10.00;;;25.00;99.90;;;;;;5010308;28;20125;-53
2022/06/28 06:24:54;;;;;;;17.35;9.85;;;25.10;99.90;;;;;;5010367;28;20065;-52
2022/06/28 06:27:20;;;;;;;19.55;10.27;;;25.10;99.90;;;;;;5010427;28;20077;-51
2022/06/28 06:29:45;;;;;;;20.25;9.55;;;25.20;99.90;;;;;;5010655;28;20469;-51
2022/06/28 06:32:11;;;;;;;19.45;10.70;;;25.20;99.90;;;;;;5010101;28;20060;-52
2022/06/28 06:34:37;;;;;;;20.40;10.45;;;25.20;99.90;;;;;;5010480;28;20036;-52
2022/06/28 06:37:03;;;;;;;20.23;11.07;;;25.30;99.90;;;;;;5010236;28;20100;-52
2022/06/28 06:39:28;;;;;;;24.88;10.20;;;25.30;99.90;;;;;;5010241;28;20038;-51
2022/06/28 06:41:54;;;;;;;15.85;9.57;;;25.40;99.90;;;;;;5010327;28;20060;-52
2022/06/28 06:44:19;;;;;;;17.52;9.95;;;25.40;99.90;;;;;;5010277;28;20517;-52
2022/06/28 06:46:45;;;;;;;14.73;10.00;;;25.50;99.90;;;;;;4992192;28;20509;-52
2022/06/28 06:49:17;;;;;;;14.90;9.48;;;25.50;99.90;;;;;;4992402;28;20084;-53
2022/06/28 06:51:48;;;;;;;13.63;10.27;;;25.60;99.90;;;;;;5010235;28;20037;-52
2022/06/28 06:54:15;;;;;;;12.20;9.77;;;25.70;99.90;;;;;;4996175;28;20061;-52
2022/06/28 06:56:42;;;;;;;16.05;9.57;;;25.80;99.90;;;;;;5013787;28;20038;-51
2022/06/28 06:59:08;;;;;;;10.85;8.07;;;25.90;99.90;;;;;;5013741;28;20030;-52
2022/06/28 07:01:34;;;;;;;15.63;9.93;;;26.00;99.90;;;;;;5013588;28;20026;-52
2022/06/28 07:04:01;;;;;;;14.90;9.83;;;26.10;99.90;;;;;;4995893;28;20037;-52
2022/06/28 07:06:27;;;;;;;14.60;7.68;;;26.10;99.90;;;;;;5013535;28;20041;-52
2022/06/28 07:08:53;;;;;;;12.95;9.05;;;26.10;99.90;;;;;;5013479;28;20040;-51
2022/06/28 07:11:19;;;;;;;12.45;9.13;;;26.20;99.90;;;;;;5013494;28;20034;-53
2022/06/28 07:13:44;;;;;;;11.32;7.95;;;26.20;99.90;;;;;;5013516;28;20034;-51
2022/06/28 07:16:10;;;;;;;11.27;8.35;;;26.30;99.90;;;;;;5013231;28;20030;-52
2022/06/28 07:18:36;;;;;;;11.77;8.15;;;26.30;99.90;;;;;;5013370;28;20026;-53
2022/06/28 07:21:02;;;;;;;11.63;8.80;;;26.30;99.90;;;;;;5013298;28;20105;-52
2022/06/28 07:23:28;;;;;;;14.98;9.40;;;26.40;99.90;;;;;;4995309;28;20026;-53
2022/06/28 07:25:53;;;;;;;14.23;9.68;;;26.40;99.90;;;;;;5013107;28;20040;-51
2022/06/28 07:28:19;;;;;;;27.92;9.30;;;26.50;99.90;;;;;;5013089;28;20030;-52
2022/06/28 07:30:46;;;;;;;11.02;8.88;;;26.50;99.90;;;;;;5013464;28;20037;-52
2022/06/28 07:33:12;;;;;;;;;;;26.50;99.90;;;;;;5013399;28;20041;-51
2022/06/28 07:35:38;;;;;;;13.60;9.05;;;26.50;99.90;;;;;;5012989;28;19915;-52
2022/06/28 07:38:04;;;;;;;11.50;8.30;;;26.50;99.90;;;;;;5013221;28;20465;-52
2022/06/28 07:40:30;;;;;;;12.27;9.80;;;26.50;99.90;;;;;;5012994;28;20521;-52
2022/06/28 07:42:55;;;;;;;35.90;11.98;;;26.50;99.90;;;;;;5012841;28;20103;-52
2022/06/28 07:45:21;;;;;;;14.23;9.13;;;26.60;99.90;;;;;;5012781;28;20038;-52
2022/06/28 07:47:50;;;;;;;16.80;9.80;;;26.50;99.90;;;;;;5012742;28;20540;-52
2022/06/28 07:53:03;;;;;;;15.13;9.55;;;26.50;99.90;;;;;;5012756;28;20096;-52
2022/06/28 07:55:30;;;;;;;16.02;8.93;;;26.50;99.90;;;;;;5019371;28;20021;-51
2022/06/28 07:57:56;;;;;;;13.07;9.77;;;26.50;99.90;;;;;;5021102;28;20025;-51
2022/06/28 08:00:22;;;;;;;14.25;10.77;;;26.30;99.90;;;;;;5022257;28;20038;-51
2022/06/28 08:02:49;;;;;;;13.55;9.82;;;26.30;99.90;;;;;;5020797;28;20030;-51
2022/06/28 08:05:15;;;;;;;12.43;11.05;;;26.30;99.90;;;;;;5022387;28;20404;-51
2022/06/28 08:07:41;;;;;;;14.02;10.27;;;26.20;99.90;;;;;;5021395;28;20060;-52
2022/06/28 08:10:08;;;;;;;15.27;10.77;;;26.30;99.90;;;;;;5020579;28;20734;-51
2022/06/28 08:12:34;;;;;;;19.15;11.38;;;26.20;99.90;;;;;;5019516;28;20089;-52
2022/06/28 08:14:59;;;;;;;14.35;10.55;;;26.10;99.90;;;;;;5017208;28;20030;-52
2022/06/28 08:17:25;;;;;;;14.25;10.52;;;26.00;99.90;;;;;;5025107;28;20510;-52
2022/06/28 08:19:51;;;;;;;17.48;11.25;;;26.00;99.90;;;;;;5031792;28;20033;-52
2022/06/28 08:22:17;;;;;;;19.77;11.93;;;25.90;99.90;;;;;;5031726;28;20032;-52
2022/06/28 08:24:42;;;;;;;16.60;10.80;;;26.00;99.90;;;;;;5031620;28;20033;-52
2022/06/28 08:27:08;;;;;;;13.60;10.75;;;26.00;99.90;;;;;;5031325;28;20037;-51
2022/06/28 08:29:34;;;;;;;14.70;11.27;;;26.10;99.90;;;;;;5005004;28;20038;-52
2022/06/28 08:32:01;;;;;;;15.13;11.30;;;26.20;99.90;;;;;;5019373;28;20033;-52
2022/06/28 08:34:27;;;;;;;14.23;11.45;;;26.40;99.90;;;;;;5023165;28;20035;-52
2022/06/28 08:36:53;;;;;;;15.55;11.30;;;26.50;99.90;;;;;;5031436;28;20111;-51
2022/06/28 08:39:19;;;;;;;20.10;11.15;;;26.70;99.90;;;;;;5023098;28;20037;-51
2022/06/28 08:41:46;;;;;;;14.15;10.98;;;26.80;99.90;;;;;;5002984;28;20052;-52
2022/06/28 08:44:14;;;;;;;16.33;11.15;;;27.00;99.90;;;;;;5019642;28;20028;-53
2022/06/28 08:46:40;;;;;;;14.13;11.48;;;27.00;99.90;;;;;;5018510;28;20033;-51
2022/06/28 08:49:25;;;;;;;18.67;12.00;;;27.10;99.90;;;;;;5013921;28;20026;-52
2022/06/28 08:51:52;;;;;;;22.00;12.68;;;27.20;99.90;;;;;;5011256;28;20473;-50
2022/06/28 08:54:19;;;;;;;11.93;10.43;;;27.10;99.90;;;;;;5014239;28;20068;-51
2022/06/28 08:56:46;;;;;;;18.38;12.43;;;27.30;99.90;;;;;;5018527;28;20616;-52
2022/06/28 08:59:13;;;;;;;19.30;12.85;;;27.60;99.90;;;;;;5019967;28;20025;-52
2022/06/28 09:01:39;;;;;;;16.20;9.32;;;27.80;99.90;;;;;;5018924;28;20030;-51
2022/06/28 09:04:08;;;;;;;21.42;12.68;;;28.00;99.90;;;;;;5020820;28;20476;-51
2022/06/28 09:06:34;;;;;;;25.48;14.02;;;28.00;99.90;;;;;;5020597;28;20040;-51
2022/06/28 09:09:00;;;;;;;15.90;12.00;;;27.80;99.90;;;;;;5019670;28;20022;-51
2022/06/28 09:11:39;;;;;;;19.67;11.85;;;27.80;99.90;;;;;;5020841;28;20059;-51
2022/06/28 09:14:21;;;;;;;22.52;12.35;;;27.40;99.90;;;;;;5018263;28;20537;-51
2022/06/28 09:16:48;;;;;;;21.45;13.05;;;27.00;99.90;;;;;;5018509;28;20025;-52
2022/06/28 09:19:13;;;;;;;24.87;11.97;;;26.60;99.90;;;;;;5019644;28;20362;-51
2022/06/28 09:21:44;;;;;;;16.90;11.63;;;26.60;99.90;;;;;;5023475;28;20767;-52
2022/06/28 09:24:09;;;;;;;13.45;10.65;;;26.60;99.90;;;;;;4995845;28;20109;-52
2022/06/28 09:26:36;;;;;;;15.05;11.55;;;26.30;99.90;;;;;;5010799;28;20046;-51
2022/06/28 09:29:10;;;;;;;14.90;10.87;;;26.20;99.90;;;;;;5030026;28;20026;-51
2022/06/28 09:31:36;;;;;;;15.02;11.05;;;26.10;99.90;;;;;;5030496;28;20120;-52
2022/06/28 09:34:08;;;;;;;18.20;11.23;;;25.90;99.90;;;;;;5012771;28;20133;-52
2022/06/28 09:36:38;;;;;;;13.25;11.13;;;25.70;99.90;;;;;;5025995;28;20048;-51
2022/06/28 09:39:19;;;;;;;21.23;11.90;;;25.60;99.90;;;;;;5028652;28;20457;-52
2022/06/28 09:41:49;;;;;;;27.58;12.82;;;25.60;99.90;;;;;;5012308;28;20156;-52
2022/06/28 09:44:17;;;;;;;22.17;13.15;;;25.60;99.90;;;;;;5030601;28;20083;-51
2022/06/28 09:46:44;;;;;;;18.45;12.32;;;25.10;99.90;;;;;;5030276;28;20042;-51
2022/06/28 09:49:12;;;;;;;16.52;13.43;;;24.90;99.90;;;;;;5030208;28;20025;-50
2022/06/28 09:51:38;;;;;;;;;;;24.50;99.90;;;;;;5013520;28;20207;-50
2022/06/28 09:54:06;;;;;;;13.30;10.25;;;24.00;99.90;;;;;;5020606;28;20316;-52
2022/06/28 09:56:47;;;;;;;10.20;7.97;;;23.50;99.90;;;;;;5010704;28;20111;-51
2022/06/28 09:59:13;;;;;;;9.70;6.90;;;23.20;99.90;;;;;;5010686;28;20029;-52
2022/06/28 10:01:39;;;;;;;7.88;6.22;;;23.10;99.90;;;;;;5010680;28;20026;-51
2022/06/28 10:04:06;;;;;;;5.57;3.75;;;22.80;99.90;;;;;;5010583;28;20030;-51
2022/06/28 10:06:32;;;;;;;4.53;3.60;;;22.40;99.90;;;;;;5010520;28;20038;-56
2022/06/28 10:08:59;;;;;;;6.20;4.38;;;22.10;99.90;;;;;;5010509;28;20040;-52
2022/06/28 10:11:24;;;;;;;9.60;4.47;;;22.10;99.90;;;;;;5010534;28;20026;-52
2022/06/28 10:16:45;;;;;;;5.65;3.70;;;21.90;99.90;;;;;;5010738;28;20037;-50
2022/06/28 10:19:15;;;;;;;9.55;3.42;;;21.70;99.90;;;;;;5010790;28;20038;-52
2022/06/28 10:21:42;;;;;;;9.55;3.78;;;21.70;99.90;;;;;;5010366;28;20034;-50
2022/06/28 10:24:08;;;;;;;6.88;3.10;;;21.90;99.90;;;;;;5010361;28;20081;-53
2022/06/28 10:26:35;;;;;;;4.53;2.70;;;21.70;99.90;;;;;;5010225;28;20081;-51
2022/06/28 10:29:08;;;;;;;3.40;2.47;;;21.70;99.90;;;;;;5014027;28;20045;-51
2022/06/28 10:31:40;;;;;;;5.00;2.72;;;21.50;99.90;;;;;;5014132;28;20602;-50
2022/06/28 10:34:10;;;;;;;3.72;2.70;;;21.60;99.90;;;;;;5013928;28;20108;-51
2022/06/28 10:36:50;;;;;;;4.03;2.92;;;21.60;99.90;;;;;;5014248;28;20037;-50
2022/06/28 10:39:23;;;;;;;4.38;2.08;;;21.70;99.90;;;;;;5014098;28;20033;-51
2022/06/28 10:41:50;;;;;;;5.60;2.45;;;21.80;99.90;;;;;;5014022;28;20118;-51
2022/06/28 10:44:28;;;;;;;2.97;1.75;;;21.90;99.90;;;;;;4996186;28;20064;-51
2022/06/28 10:47:05;;;;;;;4.00;2.00;;;21.80;99.90;;;;;;5013922;28;20045;-50
2022/06/28 10:49:45;;;;;;;3.25;2.30;;;21.80;99.90;;;;;;5013877;28;20546;-50
2022/06/28 10:52:13;;;;;;;5.55;2.40;;;21.70;99.90;;;;;;5013763;28;20064;-52
2022/06/28 10:55:02;;;;;;;4.38;2.25;;;21.70;99.90;;;;;;5029750;28;20037;-50
2022/06/28 10:57:38;;;;;;;3.83;1.80;;;21.70;99.90;;;;;;5033508;28;20041;-49
2022/06/28 11:00:09;;;;;;;4.68;1.77;;;21.60;99.90;;;;;;5032401;28;20124;-51
2022/06/28 11:03:07;;;;;;;6.53;1.77;;;21.60;99.90;;;;;;5026797;28;20021;-51
2022/06/28 11:05:53;;;;;;;1.85;1.35;;;21.50;99.90;;;;;;4989016;28;20069;-51
2022/06/28 11:09:08;;;;;;;3.20;2.03;;;21.40;99.90;;;;;;5020224;28;20067;-51
2022/06/28 11:11:34;;;;;;;3.85;1.27;;;21.40;99.90;;;;;;4962677;28;20050;-51
2022/06/28 11:14:39;;;;;;;4.20;1.42;;;21.30;99.90;;;;;;5011709;28;20034;-50
2022/06/28 11:17:22;;;;;;;1.98;1.33;;;21.30;99.90;;;;;;4998700;28;20453;-51
2022/06/28 11:19:53;;;;;;;5.40;1.63;;;21.20;99.90;;;;;;5012534;28;20041;-51
2022/06/28 11:22:33;;;;;;;4.57;1.73;;;21.20;99.90;;;;;;5013109;28;20026;-51
2022/06/28 11:25:01;;;;;;;4.07;1.58;;;21.20;99.90;;;;;;5013752;28;20030;-51
2022/06/28 11:27:27;;;;;;;3.70;1.75;;;21.20;99.90;;;;;;5029046;28;20037;-50
2022/06/28 11:30:02;;;;;;;5.15;2.17;;;21.20;99.90;;;;;;5032756;28;20453;-51
2022/06/28 11:32:37;;;;;;;5.03;2.65;;;21.20;99.90;;;;;;5015231;28;20461;-50
2022/06/28 11:35:10;;;;;;;9.30;3.30;;;21.30;99.90;;;;;;5032709;28;20076;-53
2022/06/28 11:37:56;;;;;;;9.07;3.63;;;21.30;99.90;;;;;;5032653;28;20040;-54
2022/06/28 11:40:24;;;;;;;8.00;3.45;;;21.30;99.90;;;;;;5032804;28;20029;-56
2022/06/28 11:43:06;;;;;;;6.88;3.72;;;21.40;99.90;;;;;;5026112;28;20299;-54
2022/06/28 11:45:35;;;;;;;6.10;3.25;;;21.30;99.90;;;;;;5021252;28;20384;-55
2022/06/28 11:48:12;;;;;;;10.57;3.67;;;21.40;99.90;;;;;;5020182;28;20026;-56
2022/06/28 11:50:41;;;;;;;8.77;3.38;;;21.40;99.90;;;;;;5020698;28;20804;-55
2022/06/28 11:53:06;;;;;;;7.00;3.08;;;21.50;99.90;;;;;;5023331;28;20122;-55
2022/06/28 11:55:44;;;;;;;5.55;2.95;;;21.40;99.90;;;;;;5032537;28;20103;-55
2022/06/28 11:58:10;;;;;;;;;;;21.50;99.90;;;;;;5033129;28;20152;-52
2022/06/28 12:00:35;;;;;;;6.30;3.40;;;21.50;99.90;;;;;;5032170;28;20008;-53
2022/06/28 12:03:05;;;;;;;6.85;3.15;;;21.40;99.90;;;;;;5032263;28;20493;-54
2022/06/28 12:05:35;;;;;;;5.93;4.43;;;21.40;99.90;;;;;;5031726;28;20038;-53
2022/06/28 12:08:02;;;;;;;7.63;4.53;;;21.50;99.90;;;;;;5032226;28;20119;-54
2022/06/28 12:10:29;;;;;;;;;;;21.60;99.90;;;;;;5032580;28;20103;-53
2022/06/28 12:12:56;;;;;;;5.95;3.00;;;21.60;99.90;;;;;;5032350;28;19912;-51
2022/06/28 12:15:31;;;;;;;4.95;2.80;;;21.60;99.90;;;;;;5031870;28;20025;-54
2022/06/28 12:18:06;;;;;;;6.22;3.17;;;21.60;99.90;;;;;;5031930;28;20033;-54
2022/06/28 12:20:33;;;;;;;16.33;11.63;;;21.50;99.90;;;;;;5031948;28;20025;-53
2022/06/28 12:23:08;;;;;;;4.65;2.95;;;21.50;99.90;;;;;;5031922;28;20370;-54
2022/06/28 12:25:33;;;;;;;5.22;2.28;;;21.40;99.90;;;;;;5031651;28;20072;-54
2022/06/28 12:28:00;;;;;;;4.60;2.17;;;21.40;99.90;;;;;;5029315;28;20056;-53
2022/06/28 12:30:26;;;;;;;5.28;2.05;;;21.40;99.90;;;;;;5021810;28;20037;-53
2022/06/28 12:32:52;;;;;;;3.65;2.42;;;21.40;99.90;;;;;;5019600;28;20025;-53
2022/06/28 12:35:19;;;;;;;7.72;2.60;;;21.40;99.90;;;;;;5021028;28;20063;-53
2022/06/28 12:37:46;;;;;;;4.32;2.47;;;21.40;99.90;;;;;;5021044;28;20026;-54
2022/06/28 12:40:13;;;;;;;5.95;2.58;;;21.50;99.90;;;;;;5019416;28;20370;-53
2022/06/28 12:42:39;;;;;;;3.60;2.78;;;21.30;99.90;;;;;;5020811;28;20034;-54
2022/06/28 12:45:06;;;;;;;6.13;2.87;;;21.20;99.90;;;;;;5011933;28;20049;-54
2022/06/28 12:47:37;;;;;;;5.35;3.13;;;21.30;99.90;;;;;;5011363;28;20033;-56
2022/06/28 12:50:08;;;;;;;3.83;2.88;;;21.30;99.90;;;;;;5020141;28;20026;-54
2022/06/28 12:52:37;;;;;;;3.88;2.72;;;21.40;99.90;;;;;;5019719;28;21378;-54